createdAt,value
2019-01-16T00:02:47.562Z,3.00
2019-01-16T00:08:07.994Z,2.90
2019-01-16T00:13:26.593Z,3.00
2019-01-16T00:18:29.778Z,2.80
2019-01-16T00:23:32.969Z,2.80
2019-01-16T00:28:39.238Z,2.70
2019-01-16T00:33:42.424Z,2.50
2019-01-16T00:39:04.056Z,2.30
2019-01-16T00:44:09.958Z,2.30
2019-01-16T00:49:13.137Z,2.20
2019-01-16T00:54:22.526Z,2.20
2019-01-16T00:59:28.778Z,2.30
2019-01-16T01:04:38.114Z,2.20
2019-01-16T01:09:58.252Z,2.10
2019-01-16T01:15:07.239Z,2.10
2019-01-16T01:20:10.741Z,2.10
2019-01-16T01:25:22.942Z,2.10
2019-01-16T01:30:29.107Z,2.00
2019-01-16T01:35:38.359Z,1.80
2019-01-16T01:40:44.802Z,1.70
2019-01-16T01:45:47.991Z,1.90
2019-01-16T01:51:03.380Z,1.80
2019-01-16T01:56:12.609Z,1.80
2019-01-16T02:01:22.139Z,1.90
2019-01-16T02:06:28.642Z,2.00
2019-01-16T02:11:37.665Z,2.10
2019-01-16T02:16:43.882Z,2.10
2019-01-16T02:21:50.189Z,2.20
2019-01-16T02:27:08.675Z,2.20
2019-01-16T02:32:11.863Z,2.00
2019-01-16T02:37:24.520Z,1.90
2019-01-16T02:42:27.707Z,1.80
2019-01-16T02:47:30.881Z,2.00
2019-01-16T02:52:34.086Z,2.10
2019-01-16T02:57:46.162Z,2.20
2019-01-16T03:03:04.498Z,2.20
2019-01-16T03:08:08.050Z,2.20
2019-01-16T03:13:11.237Z,2.20
2019-01-16T03:18:14.422Z,1.90
2019-01-16T03:23:17.619Z,1.60
2019-01-16T03:28:23.590Z,1.80
2019-01-16T03:33:33.134Z,1.90
2019-01-16T03:38:56.183Z,1.90
2019-01-16T03:44:11.461Z,2.10
2019-01-16T03:49:26.773Z,2.00
2019-01-16T03:54:39.039Z,2.00
2019-01-16T03:59:45.010Z,2.00
2019-01-16T04:04:48.200Z,2.00
2019-01-16T04:09:51.381Z,2.00
2019-01-16T04:15:00.785Z,2.10
2019-01-16T04:20:05.368Z,2.00
2019-01-16T04:25:11.053Z,1.90
2019-01-16T04:30:16.858Z,1.90
2019-01-16T04:35:26.207Z,1.90
2019-01-16T04:40:38.254Z,1.80
2019-01-16T04:45:53.887Z,1.80
2019-01-16T04:51:12.521Z,1.80
2019-01-16T04:56:32.773Z,1.90
2019-01-16T05:01:52.616Z,2.00
2019-01-16T05:06:58.734Z,1.80
2019-01-16T05:12:18.823Z,1.80
2019-01-16T05:17:22.337Z,1.70
2019-01-16T05:22:28.262Z,1.60
2019-01-16T05:27:48.202Z,1.60
2019-01-16T05:32:57.175Z,1.50
2019-01-16T05:38:03.125Z,1.50
2019-01-16T05:43:12.887Z,1.60
2019-01-16T05:48:19.089Z,1.60
2019-01-16T05:53:22.265Z,1.60
2019-01-16T05:58:25.903Z,1.60
2019-01-16T06:03:44.740Z,1.50
2019-01-16T06:08:50.894Z,1.40
2019-01-16T06:13:54.076Z,1.20
2019-01-16T06:19:14.443Z,1.00
2019-01-16T06:24:29.813Z,1.20
2019-01-16T06:29:42.353Z,1.20
2019-01-16T06:35:03.745Z,1.40
2019-01-16T06:40:12.663Z,1.20
2019-01-16T06:45:24.849Z,0.90
2019-01-16T06:50:40.030Z,1.00
2019-01-16T06:55:43.210Z,1.10
2019-01-16T07:00:46.792Z,1.10
2019-01-16T07:05:49.969Z,1.30
2019-01-16T07:11:08.213Z,1.20
2019-01-16T07:16:28.206Z,0.70
2019-01-16T07:21:43.488Z,0.80
2019-01-16T07:26:52.417Z,1.00
2019-01-16T07:32:08.022Z,1.20
2019-01-16T07:37:29.522Z,1.30
2019-01-16T07:42:35.826Z,1.20
2019-01-16T07:47:38.973Z,1.00
2019-01-16T07:52:44.884Z,1.10
2019-01-16T07:57:48.085Z,1.10
2019-01-16T08:03:00.634Z,1.40
2019-01-16T08:08:06.536Z,1.40
2019-01-16T08:13:26.569Z,1.50
2019-01-16T08:18:41.785Z,1.60
2019-01-16T08:23:51.014Z,1.70
2019-01-16T08:28:54.201Z,1.80
2019-01-16T08:34:03.416Z,2.00
2019-01-16T08:39:26.933Z,2.10
2019-01-16T08:44:39.593Z,2.20
2019-01-16T08:49:45.777Z,2.10
2019-01-16T08:54:48.961Z,1.90
2019-01-16T09:00:07.856Z,2.10
2019-01-16T09:05:11.450Z,2.40
2019-01-16T09:10:20.170Z,2.20
2019-01-16T09:15:41.530Z,2.10
2019-01-16T09:20:45.012Z,2.20
2019-01-16T09:26:05.044Z,2.30
2019-01-16T09:31:17.270Z,2.60
2019-01-16T09:36:30.891Z,2.80
2019-01-16T09:41:40.142Z,3.10
2019-01-16T09:46:46.065Z,3.60
2019-01-16T09:51:49.241Z,4.10
2019-01-16T09:57:09.205Z,6.40
2019-01-16T10:02:12.425Z,8.40
2019-01-16T10:07:27.827Z,9.50
2019-01-16T10:12:46.081Z,11.50
2019-01-16T10:18:05.972Z,12.70
2019-01-16T10:23:09.448Z,12.60
2019-01-16T10:28:24.773Z,13.70
2019-01-16T10:33:30.872Z,13.70
2019-01-16T10:38:39.794Z,14.20
2019-01-16T10:43:48.745Z,14.40
2019-01-16T10:48:54.718Z,15.60
2019-01-16T10:53:58.225Z,16.60
2019-01-16T10:59:19.858Z,17.00
2019-01-16T11:04:32.385Z,16.30
2019-01-16T11:09:44.866Z,16.70
2019-01-16T11:14:50.765Z,16.40
2019-01-16T11:19:53.942Z,16.90
2019-01-16T11:25:03.012Z,15.90
2019-01-16T11:30:11.718Z,16.10
2019-01-16T11:35:21.538Z,15.20
2019-01-16T11:40:27.901Z,14.90
2019-01-16T11:45:33.801Z,14.70
2019-01-16T11:50:40.113Z,14.70
2019-01-16T11:55:43.293Z,15.10
2019-01-16T12:00:49.513Z,15.70
2019-01-16T12:05:52.694Z,15.70
2019-01-16T12:11:12.510Z,13.50
2019-01-16T12:16:30.642Z,13.60
2019-01-16T12:21:36.864Z,13.20
2019-01-16T12:26:52.014Z,12.70
2019-01-16T12:31:58.054Z,13.20
2019-01-16T12:37:03.993Z,14.30
2019-01-16T12:42:13.442Z,15.10
2019-01-16T12:47:16.958Z,14.90
2019-01-16T12:52:25.924Z,14.50
2019-01-16T12:57:35.086Z,14.50
2019-01-16T13:02:44.609Z,15.50
2019-01-16T13:07:47.834Z,15.40
2019-01-16T13:12:51.029Z,14.60
2019-01-16T13:17:54.214Z,14.00
2019-01-16T13:22:57.766Z,13.50
2019-01-16T13:28:13.146Z,12.80
2019-01-16T13:33:16.683Z,12.80
2019-01-16T13:38:19.870Z,12.70
2019-01-16T13:43:26.030Z,11.80
2019-01-16T13:48:29.593Z,11.70
2019-01-16T13:53:32.781Z,11.60
2019-01-16T13:58:35.982Z,11.50
2019-01-16T14:03:41.946Z,11.50
2019-01-16T14:08:57.566Z,11.50
2019-01-16T14:14:00.864Z,11.50
2019-01-16T14:19:19.542Z,11.40
2019-01-16T14:24:28.649Z,11.50
2019-01-16T14:29:32.237Z,12.00
2019-01-16T14:34:38.421Z,12.70
2019-01-16T14:39:44.324Z,12.70
2019-01-16T14:44:47.533Z,13.50
2019-01-16T14:49:56.861Z,13.30
2019-01-16T14:55:06.125Z,12.80
2019-01-16T15:00:11.499Z,11.90
2019-01-16T15:05:24.047Z,11.20
2019-01-16T15:10:27.529Z,10.50
2019-01-16T15:15:47.662Z,9.80
2019-01-16T15:20:53.578Z,9.70
2019-01-16T15:25:59.795Z,9.60
2019-01-16T15:31:02.982Z,9.50
2019-01-16T15:36:11.917Z,9.50
2019-01-16T15:41:32.333Z,9.30
2019-01-16T15:46:35.525Z,9.20
2019-01-16T15:51:41.830Z,9.10
2019-01-16T15:56:48.371Z,8.80
2019-01-16T16:02:01.714Z,8.70
2019-01-16T16:07:08.249Z,8.60
2019-01-16T16:12:14.503Z,8.50
2019-01-16T16:17:17.689Z,8.30
2019-01-16T16:22:20.877Z,8.20
2019-01-16T16:27:24.065Z,8.00
2019-01-16T16:32:33.000Z,7.90
2019-01-16T16:37:53.013Z,7.80
2019-01-16T16:42:56.201Z,7.90
2019-01-16T16:47:59.743Z,7.90
2019-01-16T16:53:02.933Z,7.80
2019-01-16T16:58:12.010Z,7.50
2019-01-16T17:03:15.194Z,7.30
2019-01-16T17:08:21.349Z,6.90
2019-01-16T17:13:30.793Z,7.00
2019-01-16T17:18:39.876Z,7.00
2019-01-16T17:23:58.127Z,7.20
2019-01-16T17:29:17.939Z,7.20
2019-01-16T17:34:21.462Z,7.30
2019-01-16T17:39:41.248Z,7.40
2019-01-16T17:44:44.421Z,7.40
2019-01-16T17:49:47.612Z,7.30
2019-01-16T17:55:07.621Z,7.10
2019-01-16T18:00:16.088Z,7.10
2019-01-16T18:05:22.321Z,7.10
2019-01-16T18:10:34.833Z,6.90
2019-01-16T18:15:44.033Z,6.90
2019-01-16T18:20:49.947Z,7.00
2019-01-16T18:25:58.917Z,7.20
2019-01-16T18:31:20.452Z,7.20
2019-01-16T18:36:23.629Z,7.40
2019-01-16T18:41:39.182Z,7.40
2019-01-16T18:46:48.186Z,7.60
2019-01-16T18:52:00.614Z,7.70
2019-01-16T18:57:22.346Z,7.80
2019-01-16T19:02:31.581Z,7.90
2019-01-16T19:07:40.823Z,7.90
2019-01-16T19:12:53.222Z,7.80
2019-01-16T19:18:02.283Z,7.80
2019-01-16T19:23:22.156Z,7.80
2019-01-16T19:28:25.329Z,7.70
2019-01-16T19:33:28.513Z,7.70
2019-01-16T19:38:32.004Z,7.50
2019-01-16T19:43:35.184Z,7.50
2019-01-16T19:48:38.737Z,7.30
2019-01-16T19:53:42.230Z,7.20
2019-01-16T19:58:51.854Z,7.40
2019-01-16T20:04:04.088Z,7.30
2019-01-16T20:09:19.492Z,6.90
2019-01-16T20:14:39.576Z,6.60
2019-01-16T20:19:42.764Z,6.40
2019-01-16T20:25:02.814Z,6.50
2019-01-16T20:30:15.822Z,6.70
2019-01-16T20:35:28.046Z,6.50
2019-01-16T20:40:31.226Z,6.50
2019-01-16T20:45:40.481Z,6.60
2019-01-16T20:50:43.664Z,7.00
2019-01-16T20:55:46.842Z,6.90
2019-01-16T21:00:50.399Z,6.90
2019-01-16T21:06:10.399Z,6.90
2019-01-16T21:11:28.765Z,6.90
2019-01-16T21:16:31.938Z,7.10
2019-01-16T21:21:35.452Z,7.30
2019-01-16T21:26:41.398Z,7.40
2019-01-16T21:32:01.666Z,7.60
2019-01-16T21:37:21.389Z,7.70
2019-01-16T21:42:27.401Z,7.90
2019-01-16T21:47:36.395Z,8.00
2019-01-16T21:52:38.453Z,8.20
2019-01-16T21:57:58.684Z,8.60
2019-01-16T22:03:13.990Z,8.70
2019-01-16T22:08:35.580Z,8.60
2019-01-16T22:13:39.069Z,8.50
2019-01-16T22:18:48.294Z,8.30
2019-01-16T22:24:09.665Z,8.20
2019-01-16T22:29:29.638Z,8.20
2019-01-16T22:34:32.822Z,8.20
2019-01-16T22:39:36.373Z,8.30
2019-01-16T22:44:39.853Z,8.40
2019-01-16T22:49:43.036Z,8.70
2019-01-16T22:54:52.388Z,8.80
2019-01-16T22:59:55.589Z,8.70
2019-01-16T23:05:04.789Z,8.80
2019-01-16T23:10:25.954Z,8.70
2019-01-16T23:15:35.162Z,8.70
2019-01-16T23:20:47.826Z,8.70
2019-01-16T23:25:51.026Z,8.60
2019-01-16T23:30:57.509Z,8.50
2019-01-16T23:36:10.181Z,8.40
2019-01-16T23:41:30.258Z,8.20
2019-01-16T23:46:36.529Z,8.00
2019-01-16T23:51:42.814Z,7.90
2019-01-16T23:56:46.002Z,7.90
